createdAt,value
2023-05-14T00:00:48.737Z,1013.03
2023-05-14T00:01:48.744Z,1013.04
2023-05-14T00:02:48.827Z,1013.01
2023-05-14T00:03:48.854Z,1012.98
2023-05-14T00:04:48.703Z,1012.99
2023-05-14T00:05:48.694Z,1012.99
2023-05-14T00:06:48.676Z,1013.02
2023-05-14T00:07:48.666Z,1012.96
2023-05-14T00:08:48.657Z,1012.98
2023-05-14T00:09:48.649Z,1012.99
2023-05-14T00:10:48.638Z,1013.02
2023-05-14T00:11:48.624Z,1012.95
2023-05-14T00:12:48.611Z,1013.01
2023-05-14T00:13:48.609Z,1013.01
2023-05-14T00:14:48.587Z,1013.00
2023-05-14T00:15:48.589Z,1013.00
2023-05-14T00:16:48.567Z,1012.99
2023-05-14T00:17:48.563Z,1012.99
2023-05-14T00:18:48.589Z,1012.95
2023-05-14T00:19:48.540Z,1012.96
2023-05-14T00:20:48.519Z,1012.98
2023-05-14T00:21:48.524Z,1013.00
2023-05-14T00:22:48.517Z,1012.99
2023-05-14T00:23:48.503Z,1012.94
2023-05-14T00:24:48.478Z,1012.93
2023-05-14T00:25:48.470Z,1012.93
2023-05-14T00:26:48.453Z,1012.93
2023-05-14T00:27:48.458Z,1012.88
2023-05-14T00:28:48.430Z,1012.87
2023-05-14T00:29:48.426Z,1012.85
2023-05-14T00:30:48.411Z,1012.88
2023-05-14T00:31:48.468Z,1012.84
2023-05-14T00:32:48.437Z,1012.83
2023-05-14T00:33:48.381Z,1012.85
2023-05-14T00:34:48.364Z,1012.88
2023-05-14T00:35:48.358Z,1012.85
2023-05-14T00:36:48.354Z,1012.90
2023-05-14T00:37:48.358Z,1012.85
2023-05-14T00:38:48.321Z,1012.86
2023-05-14T00:39:48.316Z,1012.85
2023-05-14T00:40:48.298Z,1012.88
2023-05-14T00:41:48.312Z,1012.81
2023-05-14T00:42:48.280Z,1012.81
2023-05-14T00:43:48.273Z,1012.78
2023-05-14T00:44:48.255Z,1012.80
2023-05-14T00:45:48.261Z,1012.75
2023-05-14T00:46:48.295Z,1012.78
2023-05-14T00:47:48.244Z,1012.72
2023-05-14T00:48:48.214Z,1012.75
2023-05-14T00:49:48.253Z,1012.72
2023-05-14T00:50:48.206Z,1012.71
2023-05-14T00:51:48.185Z,1012.68
2023-05-14T00:52:48.167Z,1012.69
2023-05-14T00:53:48.161Z,1012.65
2023-05-14T00:54:48.151Z,1012.66
2023-05-14T00:55:48.148Z,1012.64
2023-05-14T00:56:48.124Z,1012.67
2023-05-14T00:57:48.151Z,1012.71
2023-05-14T00:58:48.098Z,1012.69
2023-05-14T00:59:48.106Z,1012.73
2023-05-14T01:00:48.133Z,1012.73
2023-05-14T01:01:48.075Z,1012.71
2023-05-14T01:02:48.137Z,1012.68
2023-05-14T01:03:48.174Z,1012.76
2023-05-14T01:04:48.066Z,1012.68
2023-05-14T01:05:48.032Z,1012.71
2023-05-14T01:06:48.011Z,1012.68
2023-05-14T01:07:48.005Z,1012.72
2023-05-14T01:08:47.991Z,1012.73
2023-05-14T01:09:47.988Z,1012.72
2023-05-14T01:10:47.974Z,1012.73
2023-05-14T01:11:47.960Z,1012.72
2023-05-14T01:12:47.962Z,1012.75
2023-05-14T01:13:47.944Z,1012.73
2023-05-14T01:14:47.939Z,1012.68
2023-05-14T01:15:47.923Z,1012.73
2023-05-14T01:16:47.998Z,1012.73
2023-05-14T01:17:47.950Z,1012.70
2023-05-14T01:18:47.936Z,1012.69
2023-05-14T01:19:47.894Z,1012.70
2023-05-14T01:20:47.864Z,1012.70
2023-05-14T01:21:47.845Z,1012.72
2023-05-14T01:22:47.883Z,1012.71
2023-05-14T01:23:47.832Z,1012.67
2023-05-14T01:24:47.816Z,1012.66
2023-05-14T01:25:47.802Z,1012.65
2023-05-14T01:26:47.794Z,1012.65
2023-05-14T01:27:47.792Z,1012.63
2023-05-14T01:28:47.781Z,1012.69
2023-05-14T01:29:47.758Z,1012.66
2023-05-14T01:30:47.751Z,1012.71
2023-05-14T01:31:47.775Z,1012.69
2023-05-14T01:32:47.956Z,1012.66
2023-05-14T01:33:47.711Z,1012.66
2023-05-14T01:34:47.707Z,1012.64
2023-05-14T01:35:47.699Z,1012.64
2023-05-14T01:36:47.692Z,1012.64
2023-05-14T01:37:47.675Z,1012.62
2023-05-14T01:38:47.671Z,1012.55
2023-05-14T01:39:47.659Z,1012.57
2023-05-14T01:40:47.647Z,1012.59
2023-05-14T01:41:47.633Z,1012.58
2023-05-14T01:42:47.683Z,1012.57
2023-05-14T01:43:47.613Z,1012.60
2023-05-14T01:44:47.590Z,1012.55
2023-05-14T01:45:47.698Z,1012.54
2023-05-14T01:46:47.585Z,1012.52
2023-05-14T01:47:47.622Z,1012.50
2023-05-14T01:48:47.552Z,1012.55
2023-05-14T01:49:47.534Z,1012.53
2023-05-14T01:50:47.529Z,1012.53
2023-05-14T01:51:47.540Z,1012.52
2023-05-14T01:52:47.513Z,1012.56
2023-05-14T01:53:47.498Z,1012.57
2023-05-14T01:54:47.490Z,1012.51
2023-05-14T01:55:47.545Z,1012.52
2023-05-14T01:56:47.470Z,1012.53
2023-05-14T01:57:47.437Z,1012.52
2023-05-14T01:58:47.445Z,1012.49
2023-05-14T01:59:47.427Z,1012.50
2023-05-14T02:00:47.428Z,1012.49
2023-05-14T02:01:47.441Z,1012.43
2023-05-14T02:02:47.429Z,1012.43
2023-05-14T02:03:47.407Z,1012.48
2023-05-14T02:04:47.384Z,1012.44
2023-05-14T02:05:47.384Z,1012.40
2023-05-14T02:06:47.349Z,1012.43
2023-05-14T02:07:47.337Z,1012.44
2023-05-14T02:08:47.332Z,1012.44
2023-05-14T02:09:47.319Z,1012.44
2023-05-14T02:10:47.311Z,1012.45
2023-05-14T02:11:47.291Z,1012.38
2023-05-14T02:12:47.288Z,1012.40
2023-05-14T02:13:47.273Z,1012.46
2023-05-14T02:14:47.274Z,1012.40
2023-05-14T02:15:47.309Z,1012.36
2023-05-14T02:16:47.241Z,1012.41
2023-05-14T02:17:47.274Z,1012.33
2023-05-14T02:18:47.292Z,1012.34
2023-05-14T02:19:47.216Z,1012.31
2023-05-14T02:20:47.198Z,1012.33
2023-05-14T02:21:47.187Z,1012.32
2023-05-14T02:22:47.176Z,1012.31
2023-05-14T02:23:47.168Z,1012.30
2023-05-14T02:24:47.167Z,1012.32
2023-05-14T02:25:47.135Z,1012.27
2023-05-14T02:26:47.129Z,1012.26
2023-05-14T02:27:47.116Z,1012.24
2023-05-14T02:28:47.120Z,1012.26
2023-05-14T02:29:47.100Z,1012.24
2023-05-14T02:30:47.087Z,1012.22
2023-05-14T02:31:47.099Z,1012.25
2023-05-14T02:32:47.118Z,1012.26
2023-05-14T02:33:47.063Z,1012.18
2023-05-14T02:34:47.044Z,1012.23
2023-05-14T02:35:47.028Z,1012.20
2023-05-14T02:36:47.050Z,1012.20
2023-05-14T02:37:47.013Z,1012.16
2023-05-14T02:38:47.003Z,1012.17
2023-05-14T02:39:46.989Z,1012.14
2023-05-14T02:40:46.976Z,1012.20
2023-05-14T02:41:46.961Z,1012.16
2023-05-14T02:42:46.961Z,1012.16
2023-05-14T02:43:46.947Z,1012.14
2023-05-14T02:44:46.933Z,1012.15
2023-05-14T02:45:46.930Z,1012.16
2023-05-14T02:46:46.974Z,1012.12
2023-05-14T02:47:46.923Z,1012.12
2023-05-14T02:48:47.009Z,1012.13
2023-05-14T02:49:46.871Z,1012.13
2023-05-14T02:50:46.873Z,1012.15
2023-05-14T02:51:46.876Z,1012.12
2023-05-14T02:52:46.858Z,1012.14
2023-05-14T02:53:46.830Z,1012.07
2023-05-14T02:54:46.830Z,1012.12
2023-05-14T02:55:46.814Z,1012.17
2023-05-14T02:56:46.815Z,1012.13
2023-05-14T02:57:46.800Z,1012.13
2023-05-14T02:58:46.778Z,1012.10
2023-05-14T02:59:46.763Z,1012.07
2023-05-14T03:00:46.802Z,1012.14
2023-05-14T03:01:46.765Z,1012.08
2023-05-14T03:02:46.872Z,1012.13
2023-05-14T03:03:46.727Z,1012.12
2023-05-14T03:04:46.723Z,1012.09
2023-05-14T03:05:46.713Z,1012.08
2023-05-14T03:06:46.713Z,1012.10
2023-05-14T03:07:46.687Z,1012.11
2023-05-14T03:08:46.679Z,1012.08
2023-05-14T03:09:46.653Z,1012.10
2023-05-14T03:10:46.659Z,1012.11
2023-05-14T03:11:46.649Z,1012.11
2023-05-14T03:12:46.624Z,1012.05
2023-05-14T03:13:46.616Z,1012.07
2023-05-14T03:14:46.599Z,1012.02
2023-05-14T03:15:46.599Z,1012.08
2023-05-14T03:16:46.608Z,1012.03
2023-05-14T03:17:46.584Z,1012.03
2023-05-14T03:18:46.591Z,1012.06
2023-05-14T03:19:46.560Z,1012.00
2023-05-14T03:20:46.543Z,1012.03
2023-05-14T03:21:46.524Z,1012.08
2023-05-14T03:22:46.516Z,1012.06
2023-05-14T03:23:46.502Z,1012.09
2023-05-14T03:24:46.493Z,1012.16
2023-05-14T03:25:46.491Z,1012.15
2023-05-14T03:26:46.570Z,1012.16
2023-05-14T03:27:46.457Z,1012.16
2023-05-14T03:28:46.539Z,1012.13
2023-05-14T03:29:46.447Z,1012.16
2023-05-14T03:30:46.442Z,1012.13
2023-05-14T03:31:46.424Z,1012.20
2023-05-14T03:32:46.468Z,1012.13
2023-05-14T03:33:46.396Z,1012.11
2023-05-14T03:34:46.389Z,1012.11
2023-05-14T03:35:46.369Z,1012.07
2023-05-14T03:36:46.361Z,1012.13
2023-05-14T03:37:46.350Z,1012.14
2023-05-14T03:38:46.346Z,1012.11
2023-05-14T03:39:46.340Z,1012.13
2023-05-14T03:40:46.317Z,1012.14
2023-05-14T03:41:46.307Z,1012.12
2023-05-14T03:42:46.293Z,1012.05
2023-05-14T03:43:46.292Z,1012.14
2023-05-14T03:44:46.296Z,1012.14
2023-05-14T03:45:46.260Z,1012.13
2023-05-14T03:46:46.245Z,1012.16
2023-05-14T03:47:46.261Z,1012.14
2023-05-14T03:48:46.312Z,1012.14
2023-05-14T03:49:46.236Z,1012.16
2023-05-14T03:50:46.196Z,1012.13
2023-05-14T03:51:46.200Z,1012.12
2023-05-14T03:52:46.196Z,1012.11
2023-05-14T03:53:46.191Z,1012.12
2023-05-14T03:54:46.176Z,1012.10
2023-05-14T03:55:46.159Z,1012.11
2023-05-14T03:56:46.141Z,1012.12
2023-05-14T03:57:46.149Z,1012.09
2023-05-14T03:58:46.122Z,1012.13
2023-05-14T03:59:46.109Z,1012.14
2023-05-14T04:00:46.092Z,1012.13
2023-05-14T04:01:46.090Z,1012.15
2023-05-14T04:02:46.140Z,1012.14
2023-05-14T04:03:46.334Z,1012.15
2023-05-14T04:04:46.067Z,1012.16
2023-05-14T04:05:46.066Z,1012.16
2023-05-14T04:06:46.041Z,1012.15
2023-05-14T04:07:46.037Z,1012.12
2023-05-14T04:08:46.071Z,1012.11
2023-05-14T04:09:46.007Z,1012.11
2023-05-14T04:10:45.985Z,1012.09
2023-05-14T04:11:45.978Z,1012.10
2023-05-14T04:12:45.971Z,1012.07
2023-05-14T04:13:45.948Z,1012.11
2023-05-14T04:14:45.963Z,1012.07
2023-05-14T04:15:45.932Z,1012.11
2023-05-14T04:16:45.967Z,1012.12
2023-05-14T04:17:45.921Z,1012.09
2023-05-14T04:18:45.958Z,1012.10
2023-05-14T04:19:45.882Z,1012.09
2023-05-14T04:20:45.876Z,1012.07
2023-05-14T04:21:45.873Z,1012.08
2023-05-14T04:22:45.856Z,1012.11
2023-05-14T04:23:45.868Z,1012.06
2023-05-14T04:24:45.877Z,1012.03
2023-05-14T04:25:45.867Z,1012.08
2023-05-14T04:26:45.826Z,1012.08
2023-05-14T04:27:45.792Z,1012.07
2023-05-14T04:28:45.793Z,1012.09
2023-05-14T04:29:45.767Z,1012.04
2023-05-14T04:30:45.776Z,1012.06
2023-05-14T04:31:45.770Z,1011.97
2023-05-14T04:32:45.791Z,1012.02
2023-05-14T04:33:45.726Z,1012.02
2023-05-14T04:34:45.717Z,1012.00
2023-05-14T04:35:45.729Z,1012.01
2023-05-14T04:36:45.695Z,1012.05
2023-05-14T04:37:45.679Z,1012.05
2023-05-14T04:38:45.678Z,1012.03
2023-05-14T04:39:45.681Z,1012.05
2023-05-14T04:40:45.698Z,1012.03
2023-05-14T04:41:45.634Z,1012.07
2023-05-14T04:42:45.622Z,1012.06
2023-05-14T04:43:45.614Z,1012.07
2023-05-14T04:44:45.633Z,1012.01
2023-05-14T04:45:45.612Z,1012.08
2023-05-14T04:46:45.600Z,1012.05
2023-05-14T04:47:45.608Z,1012.05
2023-05-14T04:48:45.565Z,1012.08
2023-05-14T04:49:45.555Z,1012.08
2023-05-14T04:50:45.586Z,1012.11
2023-05-14T04:51:45.521Z,1012.10
2023-05-14T04:52:45.547Z,1012.12
2023-05-14T04:53:45.511Z,1012.10
2023-05-14T04:54:45.546Z,1012.11
2023-05-14T04:55:45.470Z,1012.13
2023-05-14T04:56:45.475Z,1012.09
2023-05-14T04:57:45.453Z,1012.12
2023-05-14T04:58:45.456Z,1012.06
2023-05-14T04:59:45.443Z,1012.07
2023-05-14T05:00:45.438Z,1012.07
2023-05-14T05:01:45.836Z,1012.06
2023-05-14T05:02:45.438Z,1012.06
2023-05-14T05:03:45.468Z,1012.05
2023-05-14T05:04:45.386Z,1012.10
2023-05-14T05:05:45.402Z,1012.15
2023-05-14T05:06:45.357Z,1012.12
2023-05-14T05:07:45.382Z,1012.10
2023-05-14T05:08:45.353Z,1012.09
2023-05-14T05:09:45.353Z,1012.13
2023-05-14T05:10:45.325Z,1012.11
2023-05-14T05:11:45.306Z,1012.11
2023-05-14T05:12:45.314Z,1012.13
2023-05-14T05:13:45.286Z,1012.19
2023-05-14T05:14:45.284Z,1012.15
2023-05-14T05:15:45.278Z,1012.11
2023-05-14T05:16:45.254Z,1012.12
2023-05-14T05:17:45.319Z,1012.14
2023-05-14T05:18:45.267Z,1012.16
2023-05-14T05:19:45.249Z,1012.17
2023-05-14T05:20:45.209Z,1012.20
2023-05-14T05:21:45.196Z,1012.18
2023-05-14T05:22:45.203Z,1012.19
2023-05-14T05:23:45.173Z,1012.20
2023-05-14T05:24:45.199Z,1012.22
2023-05-14T05:25:45.155Z,1012.19
2023-05-14T05:26:45.154Z,1012.21
2023-05-14T05:27:45.141Z,1012.19
2023-05-14T05:28:45.125Z,1012.17
2023-05-14T05:29:45.114Z,1012.23
2023-05-14T05:30:45.138Z,1012.22
2023-05-14T05:31:45.145Z,1012.21
2023-05-14T05:32:45.139Z,1012.22
2023-05-14T05:33:45.063Z,1012.23
2023-05-14T05:34:45.055Z,1012.30
2023-05-14T05:35:45.045Z,1012.25
2023-05-14T05:36:45.044Z,1012.28
2023-05-14T05:37:45.020Z,1012.28
2023-05-14T05:38:45.012Z,1012.29
2023-05-14T05:39:44.993Z,1012.28
2023-05-14T05:40:45.016Z,1012.26
2023-05-14T05:41:44.996Z,1012.24
2023-05-14T05:42:44.975Z,1012.25
2023-05-14T05:43:44.950Z,1012.29
2023-05-14T05:44:44.943Z,1012.31
2023-05-14T05:45:44.935Z,1012.28
2023-05-14T05:46:44.931Z,1012.30
2023-05-14T05:47:45.028Z,1012.25
2023-05-14T05:48:44.901Z,1012.21
2023-05-14T05:49:44.951Z,1012.24
2023-05-14T05:50:44.929Z,1012.22
2023-05-14T05:51:44.860Z,1012.24
2023-05-14T05:52:44.871Z,1012.26
2023-05-14T05:53:44.843Z,1012.26
2023-05-14T05:54:44.840Z,1012.25
2023-05-14T05:55:44.831Z,1012.30
2023-05-14T05:56:44.814Z,1012.29
2023-05-14T05:57:44.796Z,1012.27
2023-05-14T05:58:44.789Z,1012.24
2023-05-14T05:59:44.782Z,1012.31
2023-05-14T06:00:44.760Z,1012.29
2023-05-14T06:01:44.777Z,1012.33
2023-05-14T06:02:44.826Z,1012.29
2023-05-14T06:03:46.937Z,1012.29
2023-05-14T06:04:44.739Z,1012.29
2023-05-14T06:05:44.775Z,1012.29
2023-05-14T06:06:44.713Z,1012.35
2023-05-14T06:07:44.688Z,1012.27
2023-05-14T06:08:44.697Z,1012.27
2023-05-14T06:09:44.665Z,1012.32
2023-05-14T06:10:46.850Z,1012.31
2023-05-14T06:11:44.644Z,1012.30
2023-05-14T06:12:44.669Z,1012.30
2023-05-14T06:13:44.623Z,1012.27
2023-05-14T06:14:44.611Z,1012.24
2023-05-14T06:15:44.598Z,1012.27
2023-05-14T06:16:44.624Z,1012.27
2023-05-14T06:17:44.648Z,1012.25
2023-05-14T06:18:44.610Z,1012.28
2023-05-14T06:19:44.554Z,1012.25
2023-05-14T06:20:44.549Z,1012.27
2023-05-14T06:21:44.563Z,1012.29
2023-05-14T06:22:44.533Z,1012.27
2023-05-14T06:23:44.518Z,1012.26
2023-05-14T06:24:44.502Z,1012.29
2023-05-14T06:25:44.493Z,1012.27
2023-05-14T06:26:44.474Z,1012.28
2023-05-14T06:27:44.478Z,1012.30
2023-05-14T06:28:44.456Z,1012.31
2023-05-14T06:29:44.442Z,1012.32
2023-05-14T06:30:44.501Z,1012.35
2023-05-14T06:31:44.430Z,1012.33
2023-05-14T06:32:44.515Z,1012.32
2023-05-14T06:33:44.396Z,1012.31
2023-05-14T06:34:44.395Z,1012.34
2023-05-14T06:35:44.387Z,1012.31
2023-05-14T06:36:44.381Z,1012.32
2023-05-14T06:37:44.402Z,1012.34
2023-05-14T06:38:44.348Z,1012.30
2023-05-14T06:39:44.363Z,1012.29
2023-05-14T06:40:45.270Z,1012.29
2023-05-14T06:41:44.344Z,1012.31
2023-05-14T06:42:44.301Z,1012.30
2023-05-14T06:43:44.287Z,1012.29
2023-05-14T06:44:44.280Z,1012.30
2023-05-14T06:45:44.274Z,1012.29
2023-05-14T06:46:44.266Z,1012.28
2023-05-14T06:47:44.285Z,1012.33
2023-05-14T06:48:44.286Z,1012.34
2023-05-14T06:49:44.221Z,1012.33
2023-05-14T06:50:44.209Z,1012.29
2023-05-14T06:51:44.208Z,1012.29
2023-05-14T06:52:44.182Z,1012.34
2023-05-14T06:53:44.176Z,1012.30
2023-05-14T06:54:44.265Z,1012.26
2023-05-14T06:55:44.168Z,1012.27
2023-05-14T06:56:44.156Z,1012.27
2023-05-14T06:57:44.130Z,1012.30
2023-05-14T06:58:44.121Z,1012.26
2023-05-14T06:59:44.107Z,1012.23
2023-05-14T07:00:44.111Z,1012.28
2023-05-14T07:01:44.156Z,1012.23
2023-05-14T07:02:44.112Z,1012.23
2023-05-14T07:03:44.067Z,1012.20
2023-05-14T07:04:44.106Z,1012.20
2023-05-14T07:05:44.051Z,1012.18
2023-05-14T07:06:44.033Z,1012.21
2023-05-14T07:07:44.019Z,1012.15
2023-05-14T07:08:44.014Z,1012.16
2023-05-14T07:09:44.002Z,1012.18
2023-05-14T07:10:43.995Z,1012.12
2023-05-14T07:11:43.980Z,1012.18
2023-05-14T07:12:43.962Z,1012.20
2023-05-14T07:13:43.965Z,1012.23
2023-05-14T07:14:43.951Z,1012.16
2023-05-14T07:15:43.946Z,1012.13
2023-05-14T07:16:43.931Z,1012.17
2023-05-14T07:17:43.929Z,1012.16
2023-05-14T07:18:43.939Z,1012.18
2023-05-14T07:19:43.897Z,1012.14
2023-05-14T07:20:43.881Z,1012.17
2023-05-14T07:21:43.863Z,1012.20
2023-05-14T07:22:43.861Z,1012.13
2023-05-14T07:23:43.836Z,1012.12
2023-05-14T07:24:43.846Z,1012.12
2023-05-14T07:25:43.826Z,1012.21
2023-05-14T07:26:43.815Z,1012.17
2023-05-14T07:27:43.797Z,1012.17
2023-05-14T07:28:43.799Z,1012.14
2023-05-14T07:29:43.786Z,1012.12
2023-05-14T07:30:43.769Z,1012.15
2023-05-14T07:31:43.909Z,1012.16
2023-05-14T07:32:43.784Z,1012.17
2023-05-14T07:33:43.761Z,1012.17
2023-05-14T07:34:43.721Z,1012.19
2023-05-14T07:35:43.715Z,1012.18
2023-05-14T07:36:43.715Z,1012.16
2023-05-14T07:37:43.694Z,1012.15
2023-05-14T07:38:43.689Z,1012.15
2023-05-14T07:39:43.671Z,1012.17
2023-05-14T07:40:43.678Z,1012.13
2023-05-14T07:41:43.648Z,1012.15
2023-05-14T07:42:43.645Z,1012.14
2023-05-14T07:43:43.632Z,1012.14
2023-05-14T07:44:43.612Z,1012.13
2023-05-14T07:45:43.601Z,1012.04
2023-05-14T07:46:43.589Z,1012.06
2023-05-14T07:47:43.688Z,1012.08
2023-05-14T07:48:43.647Z,1012.09
2023-05-14T07:49:43.558Z,1012.06
2023-05-14T07:50:43.608Z,1012.03
2023-05-14T07:51:43.529Z,1011.99
2023-05-14T07:52:43.546Z,1011.96
2023-05-14T07:53:43.508Z,1012.05
2023-05-14T07:54:43.524Z,1011.98
2023-05-14T07:55:43.491Z,1012.04
2023-05-14T07:56:43.497Z,1012.05
2023-05-14T07:57:43.490Z,1012.07
2023-05-14T07:58:43.480Z,1012.06
2023-05-14T07:59:43.440Z,1012.08
2023-05-14T08:00:43.445Z,1012.08
2023-05-14T08:01:43.477Z,1012.02
2023-05-14T08:02:43.589Z,1012.00
2023-05-14T08:03:43.497Z,1011.94
2023-05-14T08:04:43.390Z,1011.88
2023-05-14T08:05:43.386Z,1011.97
2023-05-14T08:06:43.380Z,1011.99
2023-05-14T08:07:43.360Z,1011.94
2023-05-14T08:08:43.347Z,1011.94
2023-05-14T08:09:43.338Z,1011.88
2023-05-14T08:10:43.392Z,1011.90
2023-05-14T08:11:43.342Z,1011.91
2023-05-14T08:12:43.309Z,1011.98
2023-05-14T08:13:43.294Z,1011.94
2023-05-14T08:14:43.282Z,1011.92
2023-05-14T08:15:43.277Z,1011.87
2023-05-14T08:16:43.325Z,1011.87
2023-05-14T08:17:43.259Z,1011.93
2023-05-14T08:18:43.313Z,1011.99
2023-05-14T08:19:43.225Z,1012.04
2023-05-14T08:20:43.229Z,1011.98
2023-05-14T08:21:43.209Z,1011.99
2023-05-14T08:22:43.201Z,1012.04
2023-05-14T08:23:43.183Z,1012.04
2023-05-14T08:24:43.222Z,1012.05
2023-05-14T08:25:43.169Z,1012.03
2023-05-14T08:26:43.152Z,1012.05
2023-05-14T08:27:43.151Z,1012.06
2023-05-14T08:28:43.167Z,1012.08
2023-05-14T08:29:43.137Z,1012.09
2023-05-14T08:30:43.158Z,1012.11
2023-05-14T08:31:43.098Z,1012.10
2023-05-14T08:32:43.143Z,1012.15
2023-05-14T08:33:43.070Z,1012.12
2023-05-14T08:34:44.075Z,1012.05
2023-05-14T08:35:43.065Z,1012.07
2023-05-14T08:36:43.044Z,1012.08
2023-05-14T08:37:43.029Z,1012.11
2023-05-14T08:38:43.035Z,1012.09
2023-05-14T08:39:43.042Z,1012.07
2023-05-14T08:40:43.001Z,1012.13
2023-05-14T08:41:42.983Z,1012.03
2023-05-14T08:42:42.980Z,1012.09
2023-05-14T08:43:42.972Z,1012.07
2023-05-14T08:44:42.966Z,1012.08
2023-05-14T08:45:42.944Z,1012.09
2023-05-14T08:46:42.941Z,1012.15
2023-05-14T08:47:43.006Z,1012.21
2023-05-14T08:48:42.964Z,1012.18
2023-05-14T08:49:42.924Z,1012.13
2023-05-14T08:50:42.889Z,1012.07
2023-05-14T08:51:42.892Z,1012.04
2023-05-14T08:52:42.886Z,1011.91
2023-05-14T08:53:42.868Z,1011.86
2023-05-14T08:54:42.846Z,1011.87
2023-05-14T08:55:42.830Z,1011.86
2023-05-14T08:56:42.826Z,1011.88
2023-05-14T08:57:42.902Z,1011.83
2023-05-14T08:58:42.805Z,1011.85
2023-05-14T08:59:42.787Z,1011.83
2023-05-14T09:00:42.778Z,1011.83
2023-05-14T09:01:42.824Z,1011.83
2023-05-14T09:02:42.819Z,1011.85
2023-05-14T09:03:42.780Z,1011.77
2023-05-14T09:04:42.741Z,1011.84
2023-05-14T09:05:42.725Z,1011.75
2023-05-14T09:06:42.713Z,1011.76
2023-05-14T09:07:42.708Z,1011.69
2023-05-14T09:08:42.691Z,1011.68
2023-05-14T09:09:42.683Z,1011.72
2023-05-14T09:10:42.670Z,1011.75
2023-05-14T09:11:42.667Z,1011.75
2023-05-14T09:12:42.667Z,1011.76
2023-05-14T09:13:42.647Z,1011.76
2023-05-14T09:14:42.626Z,1011.72
2023-05-14T09:15:42.685Z,1011.75
2023-05-14T09:16:42.782Z,1011.74
2023-05-14T09:17:42.614Z,1011.74
2023-05-14T09:18:42.642Z,1011.74
2023-05-14T09:19:42.568Z,1011.68
2023-05-14T09:20:42.570Z,1011.68
2023-05-14T09:21:42.562Z,1011.68
2023-05-14T09:22:42.580Z,1011.65
2023-05-14T09:23:42.534Z,1011.65
2023-05-14T09:24:42.518Z,1011.63
2023-05-14T09:25:42.511Z,1011.70
2023-05-14T09:26:42.506Z,1011.65
2023-05-14T09:27:42.487Z,1011.64
2023-05-14T09:28:42.475Z,1011.75
2023-05-14T09:29:42.465Z,1011.64
2023-05-14T09:30:42.457Z,1011.66
2023-05-14T09:31:42.491Z,1011.67
2023-05-14T09:32:42.495Z,1011.72
2023-05-14T09:33:42.418Z,1011.68
2023-05-14T09:34:42.429Z,1011.65
2023-05-14T09:35:42.404Z,1011.63
2023-05-14T09:36:42.390Z,1011.64
2023-05-14T09:37:43.340Z,1011.60
2023-05-14T09:38:42.381Z,1011.64
2023-05-14T09:39:42.355Z,1011.62
2023-05-14T09:40:42.355Z,1011.58
2023-05-14T09:41:42.324Z,1011.60
2023-05-14T09:42:42.324Z,1011.63
2023-05-14T09:43:42.299Z,1011.53
2023-05-14T09:44:42.310Z,1011.53
2023-05-14T09:45:42.287Z,1011.54
2023-05-14T09:46:42.270Z,1011.57
2023-05-14T09:47:42.346Z,1011.50
2023-05-14T09:48:42.272Z,1011.53
2023-05-14T09:49:42.244Z,1011.51
2023-05-14T09:50:42.229Z,1011.51
2023-05-14T09:51:42.211Z,1011.49
2023-05-14T09:52:42.204Z,1011.51
2023-05-14T09:53:42.183Z,1011.49
2023-05-14T09:54:42.192Z,1011.43
2023-05-14T09:55:42.170Z,1011.50
2023-05-14T09:56:42.165Z,1011.44
2023-05-14T09:57:42.174Z,1011.47
2023-05-14T09:58:42.151Z,1011.43
2023-05-14T09:59:42.132Z,1011.42
2023-05-14T10:00:42.114Z,1011.43
2023-05-14T10:01:42.273Z,1011.41
2023-05-14T10:02:42.120Z,1011.40
2023-05-14T10:03:42.088Z,1011.41
2023-05-14T10:04:42.121Z,1011.40
2023-05-14T10:05:42.061Z,1011.41
2023-05-14T10:06:42.103Z,1011.37
2023-05-14T10:07:42.070Z,1011.34
2023-05-14T10:08:42.059Z,1011.31
2023-05-14T10:09:42.017Z,1011.31
2023-05-14T10:10:42.019Z,1011.33
2023-05-14T10:11:41.997Z,1011.36
2023-05-14T10:12:42.001Z,1011.30
2023-05-14T10:13:41.986Z,1011.35
2023-05-14T10:14:41.962Z,1011.33
2023-05-14T10:15:41.954Z,1011.35
2023-05-14T10:16:42.023Z,1011.32
2023-05-14T10:17:42.497Z,1011.33
2023-05-14T10:18:41.966Z,1011.32
2023-05-14T10:19:41.911Z,1011.28
2023-05-14T10:20:41.900Z,1011.29
2023-05-14T10:21:41.887Z,1011.27
2023-05-14T10:22:41.882Z,1011.26
2023-05-14T10:23:41.867Z,1011.28
2023-05-14T10:24:42.461Z,1011.27
2023-05-14T10:25:41.866Z,1011.28
2023-05-14T10:26:42.416Z,1011.29
2023-05-14T10:27:41.888Z,1011.22
2023-05-14T10:28:42.440Z,1011.22
2023-05-14T10:29:41.858Z,1011.22
2023-05-14T10:30:41.814Z,1011.23
2023-05-14T10:31:42.517Z,1011.22
2023-05-14T10:32:42.093Z,1011.12
2023-05-14T10:33:41.863Z,1011.17
2023-05-14T10:34:41.763Z,1011.13
2023-05-14T10:35:41.959Z,1011.17
2023-05-14T10:36:44.389Z,1011.14
2023-05-14T10:37:42.504Z,1011.16
2023-05-14T10:38:41.776Z,1011.10
2023-05-14T10:39:41.689Z,1011.14
2023-05-14T10:40:41.688Z,1011.13
2023-05-14T10:41:41.927Z,1011.14
2023-05-14T10:42:41.656Z,1011.17
2023-05-14T10:43:41.647Z,1011.13
2023-05-14T10:44:41.632Z,1011.12
2023-05-14T10:45:41.626Z,1011.10
2023-05-14T10:46:41.666Z,1011.08
2023-05-14T10:47:41.655Z,1011.04
2023-05-14T10:48:41.585Z,1011.09
2023-05-14T10:49:43.837Z,1011.03
2023-05-14T10:50:42.350Z,1011.02
2023-05-14T10:51:41.612Z,1011.00
2023-05-14T10:52:41.549Z,1011.02
2023-05-14T10:53:41.563Z,1011.04
2023-05-14T10:54:41.537Z,1010.99
2023-05-14T10:55:41.519Z,1010.99
2023-05-14T10:56:41.524Z,1011.04
2023-05-14T10:57:41.494Z,1010.97
2023-05-14T10:58:41.466Z,1010.97
2023-05-14T10:59:41.479Z,1010.94
2023-05-14T11:00:41.444Z,1010.93
2023-05-14T11:01:41.480Z,1010.91
2023-05-14T11:02:41.487Z,1010.95
2023-05-14T11:03:41.522Z,1010.91
2023-05-14T11:04:41.415Z,1010.91
2023-05-14T11:05:41.395Z,1010.88
2023-05-14T11:06:41.383Z,1010.90
2023-05-14T11:07:41.382Z,1010.86
2023-05-14T11:08:41.364Z,1010.89
2023-05-14T11:09:41.373Z,1010.86
2023-05-14T11:10:41.351Z,1010.85
2023-05-14T11:11:41.333Z,1010.80
2023-05-14T11:12:41.322Z,1010.83
2023-05-14T11:13:41.316Z,1010.82
2023-05-14T11:14:41.310Z,1010.84
2023-05-14T11:15:41.293Z,1010.85
2023-05-14T11:16:41.279Z,1010.80
2023-05-14T11:17:41.389Z,1010.81
2023-05-14T11:18:41.283Z,1010.82
2023-05-14T11:19:41.267Z,1010.84
2023-05-14T11:20:41.236Z,1010.84
2023-05-14T11:21:41.270Z,1010.78
2023-05-14T11:22:41.310Z,1010.86
2023-05-14T11:23:41.241Z,1010.78
2023-05-14T11:24:41.189Z,1010.76
2023-05-14T11:25:41.182Z,1010.72
2023-05-14T11:26:41.342Z,1010.72
2023-05-14T11:27:41.305Z,1010.65
2023-05-14T11:28:41.182Z,1010.69
2023-05-14T11:29:41.136Z,1010.64
2023-05-14T11:30:41.142Z,1010.64
2023-05-14T11:31:41.153Z,1010.63
2023-05-14T11:32:41.155Z,1010.64
2023-05-14T11:33:41.099Z,1010.61
2023-05-14T11:34:41.081Z,1010.62
2023-05-14T11:35:41.069Z,1010.62
2023-05-14T11:36:41.059Z,1010.63
2023-05-14T11:37:41.052Z,1010.62
2023-05-14T11:38:41.051Z,1010.57
2023-05-14T11:39:41.021Z,1010.57
2023-05-14T11:40:41.013Z,1010.47
2023-05-14T11:41:41.001Z,1010.53
2023-05-14T11:42:41.013Z,1010.52
2023-05-14T11:43:40.978Z,1010.56
2023-05-14T11:44:40.964Z,1010.49
2023-05-14T11:45:40.984Z,1010.52
2023-05-14T11:46:40.989Z,1010.50
2023-05-14T11:47:40.958Z,1010.49
2023-05-14T11:48:40.929Z,1010.45
2023-05-14T11:49:40.910Z,1010.48
2023-05-14T11:50:40.900Z,1010.45
2023-05-14T11:51:40.915Z,1010.49
2023-05-14T11:52:40.896Z,1010.47
2023-05-14T11:53:40.864Z,1010.43
2023-05-14T11:54:40.859Z,1010.42
2023-05-14T11:55:40.848Z,1010.40
2023-05-14T11:56:40.850Z,1010.45
2023-05-14T11:57:40.958Z,1010.42
2023-05-14T11:58:40.809Z,1010.43
2023-05-14T11:59:40.792Z,1010.37
2023-05-14T12:00:40.798Z,1010.46
2023-05-14T12:01:40.781Z,1010.37
2023-05-14T12:02:40.879Z,1010.39
2023-05-14T12:03:40.918Z,1010.40
2023-05-14T12:04:40.764Z,1010.41
2023-05-14T12:05:40.736Z,1010.41